createdAt,value
2018-10-16T16:31:42.007Z,10.63
2018-10-16T16:34:10.631Z,12.07
2018-10-16T16:36:38.961Z,16.27
2018-10-16T16:39:10.058Z,11.30
2018-10-16T16:41:38.529Z,11.50
2018-10-16T16:44:07.095Z,10.77
2018-10-16T16:46:37.118Z,12.70
2018-10-16T16:49:05.773Z,12.67
2018-10-16T16:51:34.394Z,17.27
2018-10-16T16:54:02.959Z,22.87
2018-10-16T16:56:31.757Z,14.47
2018-10-16T16:59:00.324Z,14.20
2018-10-16T17:01:28.786Z,12.93
2018-10-16T17:03:57.680Z,15.83
2018-10-16T17:06:28.030Z,12.80
2018-10-16T17:08:56.810Z,13.50
2018-10-16T17:41:37.468Z,18.70
2018-10-16T17:44:06.449Z,19.23
2018-10-16T17:46:35.026Z,19.00
2018-10-16T17:49:03.613Z,15.13
2018-10-16T17:51:32.405Z,15.43
2018-10-16T17:54:00.896Z,18.67
2018-10-16T17:56:29.375Z,20.63
2018-10-16T17:58:57.881Z,17.53
2018-10-16T18:01:28.454Z,20.37
2018-10-16T18:03:57.008Z,17.50
2018-10-16T18:06:25.525Z,18.47
2018-10-16T18:08:54.081Z,18.47
2018-10-16T18:11:22.586Z,34.23
2018-10-16T18:14:08.909Z,29.60
2018-10-16T18:16:37.648Z,19.80
2018-10-16T18:19:06.375Z,18.40
2018-10-16T18:21:34.906Z,19.37
2018-10-16T18:24:03.568Z,23.20
2018-10-16T18:26:32.085Z,19.43
2018-10-16T18:29:00.604Z,20.27
2018-10-16T18:31:29.368Z,18.63
2018-10-16T18:33:58.009Z,18.47
2018-10-16T18:36:27.173Z,23.67
2018-10-16T18:38:56.218Z,21.30
2018-10-16T18:41:24.698Z,26.90
2018-10-16T19:44:18.357Z,30.50
2018-10-16T19:46:46.867Z,25.60
2018-10-16T19:49:15.337Z,30.60
2018-10-16T19:51:43.827Z,31.20
2018-10-16T19:54:12.298Z,29.57
2018-10-16T19:56:40.793Z,29.77
2018-10-16T19:59:09.344Z,29.03
2018-10-16T20:01:37.934Z,27.73
2018-10-16T20:04:06.465Z,31.67
2018-10-16T20:06:34.977Z,33.70
2018-10-16T20:09:04.768Z,30.87
2018-10-16T20:11:33.171Z,30.03
2018-10-16T20:14:01.717Z,31.47
2018-10-16T20:16:30.202Z,33.70
2018-10-16T20:18:58.735Z,36.23
2018-10-16T20:21:27.296Z,37.57
2018-10-16T20:23:55.760Z,33.80
2018-10-16T20:26:24.252Z,37.40
2018-10-16T20:28:52.821Z,33.97
2018-10-16T20:31:21.403Z,37.63
2018-10-16T20:33:49.876Z,31.37
2018-10-16T20:36:18.385Z,34.60
2018-10-16T20:38:46.904Z,34.20
2018-10-16T20:41:15.545Z,31.53
2018-10-16T20:43:44.106Z,34.13
2018-10-16T20:46:12.593Z,30.17
2018-10-16T20:48:41.070Z,30.40
2018-10-16T20:51:09.565Z,30.13
2018-10-16T20:53:38.007Z,30.27
2018-10-16T20:56:06.694Z,29.37
2018-10-16T20:58:35.195Z,33.07
2018-10-16T21:01:03.896Z,34.10
2018-10-16T21:03:32.344Z,29.60
2018-10-16T21:06:01.194Z,33.60
2018-10-16T21:08:29.581Z,31.80
2018-10-16T21:10:58.104Z,29.53
2018-10-16T21:13:26.638Z,39.53
2018-10-16T21:15:55.292Z,33.03
2018-10-16T21:18:23.825Z,31.53
2018-10-16T21:20:52.318Z,30.00
2018-10-16T21:23:20.870Z,35.57
2018-10-16T21:25:49.359Z,31.90
2018-10-16T21:28:17.809Z,31.00
2018-10-16T21:30:46.277Z,33.60
2018-10-16T21:33:14.736Z,28.53
2018-10-16T21:35:43.223Z,29.83
2018-10-16T21:38:11.828Z,27.90
2018-10-16T21:40:40.380Z,28.10
2018-10-16T21:43:09.134Z,25.67
2018-10-16T21:45:37.668Z,26.53
2018-10-16T21:48:06.093Z,28.53
2018-10-16T21:50:34.793Z,26.80
2018-10-16T21:53:03.392Z,26.67
2018-10-16T21:55:31.816Z,25.20
2018-10-16T21:58:00.527Z,23.40
2018-10-16T22:03:17.076Z,25.80
2018-10-16T22:05:45.805Z,27.87
2018-10-16T22:08:14.374Z,27.80
2018-10-16T22:10:42.806Z,25.90
2018-10-16T22:13:12.062Z,23.13
2018-10-16T22:15:40.470Z,23.67
2018-10-16T22:18:08.985Z,28.50
2018-10-16T22:20:37.451Z,25.37
2018-10-16T22:23:06.150Z,24.87
2018-10-16T22:25:34.564Z,25.70
2018-10-16T22:28:03.011Z,26.53
2018-10-16T22:30:31.478Z,25.37
2018-10-16T22:32:59.964Z,27.03
2018-10-16T22:35:28.438Z,26.57
2018-10-16T22:37:56.907Z,27.80
2018-10-16T22:40:25.367Z,24.93
2018-10-16T22:42:53.952Z,27.13
2018-10-16T22:45:22.449Z,27.50
2018-10-16T22:47:50.958Z,26.70
2018-10-16T22:50:19.535Z,25.97
2018-10-16T22:52:48.016Z,25.97
2018-10-16T22:55:16.546Z,26.80
2018-10-16T22:57:44.932Z,25.90
2018-10-16T23:00:16.089Z,28.40
2018-10-16T23:02:45.390Z,30.77
2018-10-16T23:05:14.009Z,30.80
2018-10-16T23:07:42.959Z,30.27
2018-10-16T23:10:12.009Z,32.23
2018-10-16T23:12:40.621Z,32.63
2018-10-16T23:15:10.364Z,32.53
2018-10-16T23:17:39.175Z,34.40
2018-10-16T23:20:09.135Z,36.10
2018-10-16T23:22:37.572Z,37.87
2018-10-16T23:25:06.182Z,33.33
2018-10-16T23:27:34.882Z,33.27
2018-10-16T23:30:03.327Z,33.10
2018-10-16T23:32:31.808Z,32.80
2018-10-16T23:35:00.444Z,33.97
2018-10-16T23:37:28.885Z,30.50
2018-10-16T23:39:57.333Z,31.83
2018-10-16T23:42:25.881Z,38.07
2018-10-16T23:44:54.460Z,37.87
2018-10-16T23:47:22.891Z,35.07
2018-10-16T23:49:51.371Z,36.17
2018-10-16T23:52:19.849Z,36.67
2018-10-16T23:54:48.330Z,36.17
2018-10-16T23:57:16.788Z,39.60
